Time;durP1;ratioP1;P1;durP2;ratioP2;P2;SDS_P1;SDS_P2;PMS_P1;PMS_P2;Temp;Humidity;BMP_temperature;BMP_pressure;BME280_temperature;BME280_humidity;BME280_pressure;Samples;Min_cycle;Max_cycle;Signal;HPM_P1;HPM_P2
2021/05/04 00:00:17;;;;;;;3.85;1.25;;;;;;;5.47;60.59;98079.37;1623240;88;21182;-62
2021/05/04 00:02:47;;;;;;;1.07;0.78;;;;;;;5.44;60.64;98086.03;1651482;85;21284;-62
2021/05/04 00:05:15;;;;;;;3.12;0.85;;;;;;;5.40;61.10;98094.07;1623820;88;21251;-63
2021/05/04 00:07:45;;;;;;;1.07;0.93;;;;;;;5.36;60.89;98083.62;1651950;87;21190;-62
2021/05/04 00:10:13;;;;;;;1.98;1.20;;;;;;;5.34;58.82;98085.47;1623801;87;21190;-62
2021/05/04 00:12:41;;;;;;;2.05;1.10;;;;;;;5.30;61.46;98087.44;1651489;87;21254;-62
2021/05/04 00:15:13;;;;;;;2.20;1.22;;;;;;;5.28;60.28;98081.59;1623849;87;21695;-63
2021/05/04 00:17:41;;;;;;;2.95;0.90;;;;;;;5.24;59.58;98087.42;1651771;86;21276;-62
2021/05/04 00:20:11;;;;;;;2.52;1.07;;;;;;;5.19;58.85;98082.22;1624193;88;21603;-62
2021/05/04 00:22:41;;;;;;;1.35;1.00;;;;;;;5.17;60.60;98081.52;1651908;87;21666;-62
2021/05/04 00:25:11;;;;;;;0.85;0.85;;;;;;;5.14;61.11;98086.39;1624147;88;21186;-65
2021/05/04 00:27:39;;;;;;;1.42;0.88;;;;;;;5.14;58.50;98086.85;1651938;87;21232;-62
2021/05/04 00:30:10;;;;;;;1.90;1.10;;;;;;;5.13;57.74;98095.06;1624001;88;21618;-62
2021/05/04 00:32:38;;;;;;;1.35;1.00;;;;;;;5.14;57.57;98099.27;1651899;86;21186;-62
2021/05/04 00:35:08;;;;;;;1.47;0.90;;;;;;;5.14;56.62;98094.11;1623647;88;21211;-62
2021/05/04 00:37:36;;;;;;;2.72;1.35;;;;;;;5.14;57.07;98099.27;1652000;87;21158;-61
2021/05/04 00:40:09;;;;;;;1.72;0.90;;;;;;;5.15;56.25;98104.78;1623967;88;21187;-62
2021/05/04 00:42:38;;;;;;;1.15;1.00;;;;;;;5.13;56.24;98102.79;1651899;85;21178;-63
2021/05/04 00:45:07;;;;;;;1.40;1.00;;;;;;;5.10;55.87;98097.00;1623903;88;21210;-62
2021/05/04 00:47:35;;;;;;;1.47;1.10;;;;;;;5.05;55.34;98098.62;1651882;87;21182;-62
2021/05/04 00:50:06;;;;;;;1.30;0.78;;;;;;;5.01;56.04;98103.63;1624011;88;21635;-62
2021/05/04 00:52:34;;;;;;;2.80;1.25;;;;;;;4.97;59.09;98108.63;1652031;85;21635;-67
2021/05/04 00:55:05;;;;;;;1.87;1.00;;;;;;;4.95;60.28;98109.17;1597165;88;21190;-62
2021/05/04 00:57:34;;;;;;;1.22;0.85;;;;;;;4.91;60.20;98112.88;1651968;87;21589;-62
2021/05/04 01:00:05;;;;;;;1.85;0.80;;;;;;;4.88;59.83;98109.70;1624054;87;21195;-62
2021/05/04 01:02:34;;;;;;;3.00;1.10;;;;;;;4.83;60.91;98116.43;1652014;86;21217;-62
2021/05/04 01:05:03;;;;;;;2.10;1.22;;;;;;;4.81;60.82;98114.90;1623778;88;21222;-62
2021/05/04 01:07:31;;;;;;;2.92;1.15;;;;;;;4.77;59.70;98115.57;1651893;87;21634;-62
2021/05/04 01:09:59;;;;;;;1.45;1.20;;;;;;;4.77;58.96;98116.40;1624056;87;21656;-62
2021/05/04 01:12:27;;;;;;;1.37;0.90;;;;;;;4.76;60.59;98116.48;1651690;86;21519;-62
2021/05/04 01:14:56;;;;;;;0.98;0.80;;;;;;;4.74;60.81;98114.50;1623146;88;21595;-62
2021/05/04 01:17:25;;;;;;;1.40;0.88;;;;;;;4.74;58.62;98117.07;1650798;87;21233;-62
2021/05/04 01:19:53;;;;;;;1.02;0.78;;;;;;;4.74;58.41;98120.92;1623135;88;21603;-62
2021/05/04 01:22:21;;;;;;;1.65;1.20;;;;;;;4.73;60.55;98117.98;1651972;86;21286;-62
2021/05/04 01:24:49;;;;;;;1.20;1.00;;;;;;;4.71;58.86;98124.51;1623957;88;21594;-61
2021/05/04 01:27:24;;;;;;;1.12;0.80;;;;;;;4.70;60.40;98115.62;1651901;87;21154;-62
2021/05/04 01:29:52;;;;;;;1.52;0.80;;;;;;;4.68;60.67;98111.03;1623997;88;21640;-62
2021/05/04 01:32:20;;;;;;;3.55;1.05;;;;;;;4.68;60.91;98116.17;1651796;87;21662;-62
2021/05/04 01:34:49;;;;;;;0.75;0.60;;;;;;;4.66;59.58;98108.58;1623482;88;21187;-62
2021/05/04 01:37:17;;;;;;;1.55;0.93;;;;;;;4.67;58.95;98104.23;1651757;87;21201;-62
2021/05/04 01:39:49;;;;;;;0.70;0.70;;;;;;;4.65;59.52;98105.64;1623618;88;21198;-62
2021/05/04 01:42:19;;;;;;;2.70;1.32;;;;;;;4.63;59.98;98104.91;1651927;85;21154;-62
2021/05/04 01:44:48;;;;;;;1.15;0.90;;;;;;;4.64;58.86;98108.30;1623747;88;21701;-62
2021/05/04 01:47:16;;;;;;;1.25;0.75;;;;;;;4.65;58.94;98106.92;1651962;86;21170;-62
2021/05/04 01:49:46;;;;;;;1.22;0.95;;;;;;;4.63;59.71;98102.82;1623328;88;21206;-62
2021/05/04 01:52:14;;;;;;;1.60;1.15;;;;;;;4.62;59.75;98101.99;1651849;87;21614;-62
2021/05/04 01:54:43;;;;;;;2.45;0.70;;;;;;;4.61;60.30;98100.80;1623863;88;21242;-62
2021/05/04 01:57:11;;;;;;;1.15;0.82;;;;;;;4.61;59.20;98099.52;1651725;85;21174;-62
2021/05/04 01:59:40;;;;;;;1.55;0.88;;;;;;;4.61;58.08;98095.19;1623377;88;21226;-66
2021/05/04 02:02:08;;;;;;;0.72;0.68;;;;;;;4.62;58.15;98101.16;1651089;87;21235;-62
2021/05/04 02:04:36;;;;;;;1.07;0.70;;;;;;;4.62;58.23;98094.28;1623642;88;21195;-61
2021/05/04 02:07:04;;;;;;;1.00;0.70;;;;;;;4.64;58.30;98096.73;1651700;87;21590;-64
2021/05/04 02:09:33;;;;;;;1.75;1.10;;;;;;;4.63;56.86;98102.33;1623902;88;21150;-64
2021/05/04 02:12:01;;;;;;;0.82;0.70;;;;;;;4.63;56.86;98098.96;1651924;87;21241;-63
2021/05/04 02:14:29;;;;;;;0.70;0.65;;;;;;;4.60;57.44;98094.00;1624100;88;21178;-63
2021/05/04 02:16:57;;;;;;;0.60;0.60;;;;;;;4.55;60.51;98093.50;1652012;87;21186;-63
2021/05/04 02:19:25;;;;;;;1.15;1.00;;;;;;;4.49;59.26;98099.86;1623501;88;21213;-63
2021/05/04 02:21:53;;;;;;;1.80;1.05;;;;;;;4.46;57.27;98101.81;1652083;87;21212;-61
2021/05/04 02:24:21;;;;;;;0.60;0.55;;;;;;;4.43;60.31;98097.71;1624100;88;21182;-64
2021/05/04 02:26:51;;;;;;;0.62;0.60;;;;;;;4.43;58.35;98103.31;1652179;87;21177;-63
2021/05/04 02:29:18;;;;;;;1.02;0.90;;;;;;;4.43;57.37;98102.03;1623892;88;21602;-64
2021/05/04 02:31:47;;;;;;;1.60;0.88;;;;;;;4.42;58.78;98102.48;1652129;87;21207;-61
2021/05/04 02:34:15;;;;;;;2.30;1.20;;;;;;;4.41;59.07;98102.11;1623262;88;21226;-64
2021/05/04 02:36:43;;;;;;;3.90;0.95;;;;;;;4.42;59.44;98102.94;1651237;87;21186;-63
2021/05/04 02:39:11;;;;;;;1.30;0.85;;;;;;;4.41;58.95;98102.57;1624281;88;21221;-61
2021/05/04 02:41:39;;;;;;;1.85;0.65;;;;;;;4.41;59.05;98104.69;1652140;85;21198;-68
2021/05/04 02:44:08;;;;;;;1.52;0.72;;;;;;;4.42;59.51;98110.20;1624152;88;21265;-63
2021/05/04 02:46:36;;;;;;;0.88;0.78;;;;;;;4.42;57.22;98107.62;1652284;87;21607;-62
2021/05/04 02:49:04;;;;;;;1.55;1.15;;;;;;;4.43;59.40;98104.14;1624564;88;21186;-66
2021/05/04 02:51:32;;;;;;;1.87;0.90;;;;;;;4.40;58.99;98103.03;1652319;85;21563;-66
2021/05/04 02:54:00;;;;;;;0.82;0.78;;;;;;;4.38;59.57;98111.33;1624257;88;21178;-66
2021/05/04 02:56:28;;;;;;;2.02;0.93;;;;;;;4.37;58.55;98104.98;1652244;85;21675;-65
2021/05/04 02:58:56;;;;;;;1.20;0.80;;;;;;;4.35;58.75;98111.53;1624258;87;21198;-65
2021/05/04 03:01:25;;;;;;;1.95;0.82;;;;;;;4.31;59.24;98106.23;1652296;85;21194;-66
2021/05/04 03:03:53;;;;;;;2.95;0.72;;;;;;;4.30;59.88;98109.71;1624206;88;21194;-65
2021/05/04 03:06:21;;;;;;;0.65;0.60;;;;;;;4.28;59.11;98121.37;1652246;85;21243;-67
2021/05/04 03:08:49;;;;;;;0.85;0.70;;;;;;;4.28;60.58;98119.25;1624305;88;21190;-65
2021/05/04 03:11:17;;;;;;;2.62;1.20;;;;;;;4.25;60.26;98120.29;1652092;87;21198;-66
2021/05/04 03:13:46;;;;;;;2.00;0.80;;;;;;;4.24;59.81;98119.13;1624341;88;21202;-62
2021/05/04 03:16:14;;;;;;;1.30;0.70;;;;;;;4.20;60.87;98121.04;1652237;85;21178;-62
2021/05/04 03:18:42;;;;;;;1.42;0.98;;;;;;;4.20;59.79;98113.82;1623749;88;21162;-62
2021/05/04 03:21:10;;;;;;;1.85;0.98;;;;;;;4.17;60.84;98122.53;1652219;85;21190;-62
2021/05/04 03:23:39;;;;;;;0.98;0.65;;;;;;;4.18;60.12;98120.33;1623975;88;21230;-62
2021/05/04 03:26:09;;;;;;;0.90;0.80;;;;;;;4.19;60.25;98132.27;1651918;87;21158;-62
2021/05/04 03:28:37;;;;;;;1.92;0.88;;;;;;;4.19;60.35;98125.02;1623896;88;21221;-62
2021/05/04 03:31:05;;;;;;;0.80;0.78;;;;;;;4.18;60.74;98137.49;1651900;86;21182;-62
2021/05/04 03:33:33;;;;;;;0.82;0.82;;;;;;;4.18;60.58;98142.17;1623716;88;21630;-62
2021/05/04 03:36:02;;;;;;;3.80;1.57;;;;;;;4.17;60.83;98139.23;1651897;87;21182;-62
2021/05/04 03:38:30;;;;;;;1.05;0.95;;;;;;;4.20;60.73;98139.52;1624151;88;21182;-62
2021/05/04 03:40:58;;;;;;;1.35;1.10;;;;;;;4.20;59.61;98136.46;1651901;87;21186;-63
2021/05/04 03:43:26;;;;;;;1.85;1.32;;;;;;;4.21;61.42;98139.41;1638875;87;21638;-61
2021/05/04 03:45:54;;;;;;;1.45;0.80;;;;;;;4.20;60.91;98140.32;1666127;85;21218;-63
2021/05/04 03:48:22;;;;;;;1.15;0.45;;;;;;;4.24;59.65;98141.77;1666018;85;21214;-61
2021/05/04 03:50:50;;;;;;;0.95;0.80;;;;;;;4.28;60.14;98141.94;1666758;85;21239;-63
2021/05/04 03:53:18;;;;;;;1.47;0.70;;;;;;;4.35;59.59;98145.41;1666832;85;21664;-64
2021/05/04 03:55:47;;;;;;;1.27;1.05;;;;;;;4.38;58.65;98142.17;1666572;85;21171;-64
2021/05/04 03:58:16;;;;;;;0.78;0.75;;;;;;;4.43;59.42;98141.87;1666752;85;21183;-63
2021/05/04 04:00:44;;;;;;;1.00;0.80;;;;;;;4.48;58.42;98143.21;1666931;85;21603;-63
2021/05/04 04:03:12;;;;;;;1.07;0.80;;;;;;;4.55;58.80;98144.94;1666968;85;21179;-68
2021/05/04 04:05:40;;;;;;;2.02;1.10;;;;;;;4.59;57.28;98147.67;1667138;86;21317;-68
2021/05/04 04:08:08;;;;;;;1.77;1.02;;;;;;;4.64;58.41;98150.28;1667076;86;21652;-67
2021/05/04 04:10:39;;;;;;;1.22;1.12;;;;;;;4.70;58.29;98151.64;1667029;85;21190;-68
2021/05/04 04:13:08;;;;;;;2.83;1.15;;;;;;;4.72;58.31;98148.03;1667010;85;21234;-68
2021/05/04 04:15:35;;;;;;;2.47;0.78;;;;;;;4.74;58.90;98153.91;1667196;85;21635;-72
2021/05/04 04:18:24;;;;;;;4.03;0.90;;;;;;;4.77;59.34;98166.56;1667123;85;21296;-68
2021/05/04 04:21:13;;;;;;;4.10;1.25;;;;;;;4.80;57.88;98157.81;1655395;85;21151;-68
2021/05/04 04:23:41;;;;;;;0.80;0.72;;;;;;;4.87;57.60;98162.91;1604450;88;21673;-64
2021/05/04 04:26:09;;;;;;;0.72;0.72;;;;;;;4.93;58.08;98166.38;1603688;89;21211;-63
2021/05/04 04:28:38;;;;;;;1.57;1.25;;;;;;;4.98;57.67;98160.43;1603824;88;21195;-63
2021/05/04 04:31:06;;;;;;;1.80;1.10;;;;;;;5.05;58.02;98156.55;1603962;89;21180;-63
2021/05/04 04:33:34;;;;;;;1.40;0.88;;;;;;;5.12;57.40;98157.77;1603562;89;21232;-63
2021/05/04 04:36:02;;;;;;;1.05;0.70;;;;;;;5.19;57.01;98155.13;1603764;89;21670;-63
2021/05/04 04:38:30;;;;;;;1.47;0.98;;;;;;;5.29;56.90;98158.38;1603526;89;21247;-63
2021/05/04 04:40:58;;;;;;;2.25;0.90;;;;;;;5.36;56.73;98157.84;1603993;89;21693;-63
2021/05/04 04:43:26;;;;;;;1.25;0.93;;;;;;;5.43;56.31;98166.79;1603546;89;21246;-62
2021/05/04 04:45:55;;;;;;;0.98;0.82;;;;;;;5.49;56.14;98162.48;1577734;91;21242;-63
2021/05/04 04:48:23;;;;;;;1.27;0.90;;;;;;;5.58;55.66;98162.33;1603484;89;21678;-63
2021/05/04 04:50:51;;;;;;;1.65;1.10;;;;;;;5.66;55.67;98158.29;1603967;88;21196;-63
2021/05/04 04:53:19;;;;;;;1.27;1.00;;;;;;;5.74;55.74;98165.02;1603352;88;21176;-63
2021/05/04 04:55:47;;;;;;;1.37;0.93;;;;;;;5.83;55.32;98164.84;1603921;88;21640;-63
2021/05/04 04:58:15;;;;;;;0.80;0.65;;;;;;;5.91;55.45;98157.89;1603338;89;21222;-64
2021/05/04 05:00:43;;;;;;;1.60;0.82;;;;;;;5.99;55.48;98155.09;1604057;88;21212;-63
2021/05/04 05:03:11;;;;;;;2.37;1.50;;;;;;;6.09;55.04;98161.72;1604246;89;21598;-63
2021/05/04 05:05:39;;;;;;;1.25;1.12;;;;;;;6.15;55.49;98162.09;1603989;89;21178;-64
2021/05/04 05:08:07;;;;;;;3.40;1.30;;;;;;;6.23;55.51;98158.96;1604186;88;21204;-64
2021/05/04 05:10:35;;;;;;;1.92;1.30;;;;;;;6.30;55.84;98157.61;1604242;89;21251;-64
2021/05/04 05:13:03;;;;;;;5.53;0.98;;;;;;;6.38;55.20;98153.18;1603394;88;21181;-64
2021/05/04 05:15:37;;;;;;;0.70;0.70;;;;;;;6.47;55.28;98162.34;1604004;88;21279;-64
2021/05/04 05:18:04;;;;;;;3.00;1.55;;;;;;;6.57;55.04;98156.88;1604666;87;21186;-63
2021/05/04 05:20:30;;;;;;;2.27;1.60;;;;;;;6.68;54.81;98162.07;1604063;89;21210;-64
2021/05/04 05:22:59;;;;;;;2.98;1.70;;;;;;;6.80;54.41;98153.88;1584453;89;21238;-64
2021/05/04 05:25:27;;;;;;;0.90;0.85;;;;;;;6.94;53.24;98157.53;1601405;89;21234;-65
2021/05/04 05:27:55;;;;;;;0.82;0.70;;;;;;;7.08;52.63;98157.30;1614756;88;21169;-64
2021/05/04 05:30:23;;;;;;;1.22;1.10;;;;;;;7.22;51.31;98150.28;1614599;89;21312;-64
2021/05/04 05:32:51;;;;;;;1.77;0.72;;;;;;;7.36;51.95;98148.74;1621617;87;21206;-64
2021/05/04 05:35:20;;;;;;;3.25;1.17;;;;;;;7.50;51.97;98149.34;1620788;87;21159;-64
2021/05/04 05:37:48;;;;;;;1.07;0.85;;;;;;;7.62;51.32;98143.22;1627928;87;21188;-63
2021/05/04 05:40:15;;;;;;;1.35;1.15;;;;;;;7.76;51.73;98139.54;1626325;87;21169;-70
2021/05/04 05:42:43;;;;;;;1.52;1.10;;;;;;;7.93;51.53;98142.92;1626807;87;21671;-70
2021/05/04 05:45:53;;;;;;;1.95;1.22;;;;;;;7.99;51.34;98142.42;1628674;87;21127;-70
2021/05/04 05:48:21;;;;;;;1.40;0.90;;;;;;;8.10;51.07;98144.97;1698516;84;21237;-70
2021/05/04 05:50:49;;;;;;;2.70;1.47;;;;;;;8.25;50.26;98140.32;1702434;84;21165;-70
2021/05/04 05:53:18;;;;;;;1.82;1.45;;;;;;;8.37;50.22;98135.95;1722566;82;21185;-71
2021/05/04 05:55:46;;;;;;;2.22;1.35;;;;;;;8.51;50.63;98135.67;1711361;82;21193;-68
2021/05/04 05:58:15;;;;;;;1.27;1.00;;;;;;;8.67;50.53;98136.05;1682773;84;21613;-68
2021/05/04 06:00:43;;;;;;;3.12;1.75;;;;;;;8.85;49.76;98133.70;1704857;83;21773;-69
2021/05/04 06:03:11;;;;;;;2.80;1.30;;;;;;;8.99;49.05;98129.00;1704905;83;21171;-69
2021/05/04 06:05:39;;;;;;;5.25;1.27;;;;;;;9.17;49.25;98129.23;1705033;83;21380;-69
2021/05/04 06:08:07;;;;;;;2.08;1.32;;;;;;;9.32;48.09;98127.11;1705359;83;21198;-66
2021/05/04 06:10:35;;;;;;;1.20;0.88;;;;;;;9.49;48.05;98123.41;1705622;83;21671;-65
2021/05/04 06:13:06;;;;;;;1.20;0.80;;;;;;;9.68;50.77;98120.06;1705695;83;21144;-64
2021/05/04 06:15:36;;;;;;;1.67;0.98;;;;;;;9.93;50.28;98123.91;1704718;83;21175;-65
2021/05/04 06:18:04;;;;;;;3.47;1.20;;;;;;;10.19;50.35;98125.55;1686621;83;21571;-69
2021/05/04 06:20:33;;;;;;;9.25;4.85;;;;;;;10.38;45.96;98119.06;1681565;84;21221;-67
2021/05/04 06:23:02;;;;;;;32.90;15.75;;;;;;;10.56;45.57;98113.98;1682454;84;21223;-69
2021/05/04 06:25:31;;;;;;;4.58;3.05;;;;;;;10.70;46.04;98110.97;1681437;84;21263;-68
2021/05/04 06:28:04;;;;;;;34.43;15.63;;;;;;;10.91;46.77;98116.78;1682785;84;21198;-64
2021/05/04 06:30:34;;;;;;;19.12;10.03;;;;;;;11.10;43.82;98112.00;1681197;84;21191;-63
2021/05/04 06:33:10;;;;;;;3.80;2.67;;;;;;;11.27;43.71;98112.56;1677126;84;21132;-62
2021/05/04 06:35:43;;;;;;;1.47;1.17;;;;;;;11.48;45.85;98108.44;1677260;84;21373;-63
2021/05/04 06:38:13;;;;;;;3.12;1.15;;;;;;;11.70;44.09;98108.86;1677123;84;21687;-64
2021/05/04 06:40:44;;;;;;;2.17;1.07;;;;;;;11.89;40.54;98111.37;1677462;84;21286;-65
2021/05/04 06:43:12;;;;;;;1.45;0.95;;;;;;;11.95;37.87;98111.72;1682324;84;21185;-65
2021/05/04 06:45:41;;;;;;;2.65;1.35;;;;;;;11.97;36.22;98109.81;1711291;83;21163;-69
2021/05/04 06:48:09;;;;;;;1.07;0.75;;;;;;;12.11;40.56;98104.90;1702875;83;21182;-63
2021/05/04 06:50:37;;;;;;;1.50;0.98;;;;;;;12.33;40.38;98101.83;1708414;83;21570;-63
2021/05/04 06:53:06;;;;;;;1.50;0.90;;;;;;;12.54;39.23;98100.22;1647476;86;21171;-63
2021/05/04 06:55:34;;;;;;;2.83;1.00;;;;;;;12.71;39.73;98104.59;1674568;86;21242;-63
2021/05/04 06:58:02;;;;;;;1.35;0.70;;;;;;;12.84;37.03;98098.46;1674371;86;21740;-62
2021/05/04 07:00:32;;;;;;;3.02;1.32;;;;;;;13.02;36.55;98102.81;1674500;86;21709;-62
2021/05/04 07:03:04;;;;;;;3.12;1.00;;;;;;;13.09;33.81;98092.09;1674479;86;21198;-65
2021/05/04 07:05:33;;;;;;;1.75;0.88;;;;;;;13.16;36.32;98093.13;1722093;82;21136;-63
2021/05/04 07:08:01;;;;;;;1.22;0.80;;;;;;;13.24;35.28;98104.91;1708211;84;21708;-63
2021/05/04 07:10:29;;;;;;;1.57;1.00;;;;;;;13.41;36.86;98099.29;1680101;84;21179;-67
2021/05/04 07:12:58;;;;;;;1.82;1.22;;;;;;;13.46;35.08;98106.17;1691803;83;21159;-63
2021/05/04 07:15:26;;;;;;;3.35;1.00;;;;;;;13.47;34.87;98100.77;1691929;83;21345;-64
2021/05/04 07:17:54;;;;;;;1.37;0.80;;;;;;;13.53;34.19;98100.16;1691943;83;21132;-65
2021/05/04 07:20:23;;;;;;;1.20;0.90;;;;;;;13.46;34.25;98091.30;1692041;83;21167;-64
2021/05/04 07:22:55;;;;;;;2.05;0.85;;;;;;;13.54;32.90;98099.16;1692067;83;21183;-65
2021/05/04 07:25:24;;;;;;;1.85;1.10;;;;;;;13.57;31.10;98089.73;1691990;83;21188;-64
2021/05/04 07:27:53;;;;;;;2.52;1.15;;;;;;;13.65;34.11;98090.25;1692129;83;21160;-65
2021/05/04 07:30:21;;;;;;;3.52;1.17;;;;;;;13.70;33.42;98099.22;1691936;83;21261;-64
2021/05/04 07:32:50;;;;;;;1.05;0.70;;;;;;;13.79;31.97;98094.84;1691635;83;21188;-65
2021/05/04 07:35:18;;;;;;;0.70;0.60;;;;;;;13.92;33.06;98095.70;1691952;83;21159;-65
2021/05/04 07:37:46;;;;;;;2.27;0.80;;;;;;;14.01;35.67;98082.96;1691802;83;21715;-65
2021/05/04 07:40:14;;;;;;;1.75;0.98;;;;;;;13.83;32.00;98093.55;1691962;83;21140;-65
2021/05/04 07:42:42;;;;;;;2.40;1.10;;;;;;;13.71;31.86;98091.73;1691786;83;21196;-64
2021/05/04 07:45:32;;;;;;;3.12;1.52;;;;;;;13.74;30.51;98091.89;1691800;83;21151;-64
2021/05/04 07:48:02;;;;;;;1.87;0.98;;;;;;;13.77;30.91;98094.99;1679177;85;21173;-65
2021/05/04 07:50:30;;;;;;;1.40;0.78;;;;;;;13.89;31.86;98087.67;1745476;82;21166;-65
2021/05/04 07:52:58;;;;;;;0.80;0.80;;;;;;;14.07;33.43;98082.34;1677440;85;21172;-64
2021/05/04 07:55:26;;;;;;;1.20;1.00;;;;;;;14.03;31.27;98070.58;1677715;85;21220;-65
2021/05/04 07:57:54;;;;;;;1.20;0.80;;;;;;;14.10;30.58;98065.85;1677491;85;21592;-64
2021/05/04 08:00:23;;;;;;;2.50;0.90;;;;;;;14.09;31.01;98068.61;1745296;82;21187;-65
2021/05/04 08:02:51;;;;;;;0.72;0.65;;;;;;;14.26;31.62;98076.80;1677537;85;21374;-65
2021/05/04 08:05:19;;;;;;;1.22;0.85;;;;;;;14.34;30.07;98070.27;1745255;82;21333;-64
2021/05/04 08:07:47;;;;;;;0.93;0.70;;;;;;;14.37;30.52;98067.36;1677529;85;21180;-63
2021/05/04 08:10:14;;;;;;;3.33;1.02;;;;;;;14.57;31.96;98067.34;1745355;82;21292;-63
2021/05/04 08:12:43;;;;;;;2.58;1.10;;;;;;;14.62;31.01;98071.60;1677598;85;21284;-63
2021/05/04 08:15:17;;;;;;;1.20;0.85;;;;;;;14.51;31.25;98067.20;1739282;82;21635;-65
2021/05/04 08:21:10;;;;;;;2.08;1.07;;;;;;;14.80;32.03;98058.81;1588628;90;21294;-64
2021/05/04 08:23:38;;;;;;;0.95;0.57;;;;;;;14.94;30.73;98060.76;1588497;90;21222;-63
2021/05/04 08:26:05;;;;;;;0.75;0.50;;;;;;;14.95;31.01;98050.11;1588535;90;21201;-63
2021/05/04 08:28:33;;;;;;;1.92;0.82;;;;;;;14.97;29.94;98053.39;1588518;90;21656;-64
2021/05/04 08:31:01;;;;;;;1.32;0.78;;;;;;;14.83;30.21;98057.16;1588391;90;21183;-64
2021/05/04 08:33:30;;;;;;;1.20;0.53;;;;;;;14.97;29.29;98056.00;1588464;90;21311;-65
2021/05/04 08:35:58;;;;;;;0.93;0.70;;;;;;;15.04;30.32;98053.03;1648300;84;21167;-63
2021/05/04 08:38:26;;;;;;;1.17;0.78;;;;;;;15.13;32.43;98055.14;1675877;85;21187;-65
2021/05/04 08:40:54;;;;;;;1.90;0.80;;;;;;;15.22;30.52;98050.18;1675738;86;21247;-70
2021/05/04 08:43:25;;;;;;;0.78;0.60;;;;;;;15.27;27.48;98047.88;1676044;85;21212;-71
2021/05/04 08:46:00;;;;;;;0.62;0.50;;;;;;;15.40;29.36;98047.34;1674564;85;21176;-72
2021/05/04 08:48:29;;;;;;;2.80;0.65;;;;;;;15.51;27.59;98046.50;1675938;85;21616;-68
2021/05/04 08:50:59;;;;;;;0.65;0.53;;;;;;;15.66;26.55;98038.23;1673516;85;21275;-70
2021/05/04 08:53:29;;;;;;;0.57;0.53;;;;;;;15.73;30.76;98034.91;1671560;85;21221;-70
2021/05/04 08:55:57;;;;;;;1.20;0.88;;;;;;;15.79;30.68;98042.09;1676151;85;21180;-70
2021/05/04 08:58:26;;;;;;;3.30;0.80;;;;;;;15.81;26.51;98029.13;1676021;86;21729;-65
2021/05/04 09:00:56;;;;;;;1.05;0.60;;;;;;;15.71;26.78;98030.35;1672052;86;21174;-69
2021/05/04 09:03:35;;;;;;;0.90;0.60;;;;;;;15.86;28.71;98021.58;1675889;86;21389;-69
2021/05/04 09:06:03;;;;;;;1.20;0.80;;;;;;;15.98;30.52;98017.56;1676248;85;21186;-71
2021/05/04 09:08:55;;;;;;;1.40;0.60;;;;;;;16.09;28.50;98011.91;1675567;85;21179;-71
2021/05/04 09:17:15;;;;;;;;;;;;;;;16.45;26.26;98013.89;1782401;79;23067;-64
2021/05/04 09:20:00;;;;;;;0.68;0.42;;;;;;;16.57;25.96;98007.25;1753268;82;20233;-64
2021/05/04 09:22:17;;;;;;;1.15;0.85;;;;;;;16.69;28.53;98015.50;1721373;82;21589;-69
2021/05/04 09:24:45;;;;;;;4.42;1.07;;;;;;;16.64;24.92;98013.90;1753480;82;21177;-69
2021/05/04 09:27:17;;;;;;;1.75;1.00;;;;;;;16.56;25.25;98005.13;1753282;82;21156;-69
2021/05/04 09:29:53;;;;;;;1.55;0.82;;;;;;;16.57;25.25;98006.73;1753499;82;21157;-69
2021/05/04 09:32:46;;;;;;;1.00;0.70;;;;;;;16.80;25.86;98000.12;1753547;82;21192;-71
2021/05/04 09:35:14;;;;;;;2.17;1.27;;;;;;;16.89;24.39;97999.52;1698500;84;21171;-68
2021/05/04 09:37:47;;;;;;;1.45;0.62;;;;;;;17.09;24.53;97994.85;1698431;84;21658;-71
2021/05/04 09:40:27;;;;;;;2.10;1.05;;;;;;;17.35;24.20;97998.81;1698130;84;21710;-70
2021/05/04 09:43:19;;;;;;;1.25;0.90;;;;;;;17.61;23.78;97983.86;1698323;84;21180;-70
2021/05/04 09:46:01;;;;;;;2.75;2.47;;;;;;;17.74;24.35;97982.17;1698398;84;21593;-70
2021/05/04 09:48:34;;;;;;;1.35;0.93;;;;;;;18.18;23.83;97973.27;1698465;84;21624;-71
2021/05/04 09:51:16;;;;;;;1.17;0.80;;;;;;;18.42;23.29;97971.53;1698297;84;21624;-64
2021/05/04 09:54:05;;;;;;;1.12;0.78;;;;;;;18.61;24.78;97977.45;1698336;84;21597;-63
2021/05/04 09:56:33;;;;;;;0.60;0.50;;;;;;;19.38;27.27;97975.89;1693218;84;21167;-63
2021/05/04 09:59:04;;;;;;;1.37;0.65;;;;;;;19.95;22.89;97974.64;1698380;84;21152;-64
2021/05/04 10:01:33;;;;;;;1.37;0.93;;;;;;;20.46;21.23;97972.23;1698579;84;21180;-64
2021/05/04 10:04:04;;;;;;;0.80;0.60;;;;;;;20.93;22.82;97964.52;1698460;84;21226;-67
2021/05/04 10:06:32;;;;;;;1.35;0.70;;;;;;;21.47;23.64;97971.53;1698360;84;21600;-63
2021/05/04 10:09:01;;;;;;;0.70;0.70;;;;;;;21.18;24.36;97962.81;1698198;84;21235;-62
2021/05/04 10:11:30;;;;;;;1.52;0.90;;;;;;;21.86;24.62;97953.30;1698268;84;21605;-64
2021/05/04 10:13:58;;;;;;;1.05;0.78;;;;;;;22.37;23.54;97962.38;1698216;84;21167;-64
2021/05/04 10:16:29;;;;;;;1.02;0.60;;;;;;;22.79;24.95;97959.44;1698291;84;21239;-65
2021/05/04 10:19:03;;;;;;;1.47;0.90;;;;;;;22.53;19.12;97946.42;1698361;84;21167;-65
2021/05/04 10:21:32;;;;;;;4.05;3.10;;;;;;;22.90;20.70;97943.32;1698407;84;21152;-73
2021/05/04 10:24:00;;;;;;;51.50;28.27;;;;;;;23.14;19.64;97931.31;1698381;84;21237;-71
2021/05/04 10:26:33;;;;;;;17.77;11.25;;;;;;;23.69;20.46;97932.53;1698365;84;21215;-70
2021/05/04 10:29:07;;;;;;;2.30;1.90;;;;;;;23.95;20.42;97923.35;1697911;84;21171;-66
2021/05/04 10:31:40;;;;;;;1.25;1.02;;;;;;;24.42;23.16;97922.38;1698074;84;21163;-66
2021/05/04 10:34:33;;;;;;;1.42;1.00;;;;;;;24.63;17.30;97909.55;1691138;84;21171;-65
2021/05/04 10:37:07;;;;;;;1.87;1.10;;;;;;;25.12;21.60;97912.16;1685285;85;21175;-66
2021/05/04 10:39:43;;;;;;;0.95;0.70;;;;;;;25.21;19.12;97909.42;1684426;85;21149;-72
2021/05/04 10:42:14;;;;;;;0.93;0.80;;;;;;;25.60;21.10;97905.11;1685043;84;21173;-72
2021/05/04 10:44:58;;;;;;;0.70;0.62;;;;;;;25.99;20.47;97904.95;1685116;85;21180;-73
2021/05/04 10:47:49;;;;;;;1.02;0.80;;;;;;;26.34;25.04;97893.28;1681524;85;21688;-71
2021/05/04 10:50:23;;;;;;;1.62;1.10;;;;;;;26.58;21.66;97896.51;1685125;85;21592;-72
2021/05/04 10:53:03;;;;;;;0.75;0.75;;;;;;;25.84;15.67;97886.09;1655473;85;21226;-73
2021/05/04 10:55:59;;;;;;;1.90;1.57;;;;;;;25.17;16.16;97874.55;1685223;85;21179;-73
2021/05/04 10:58:31;;;;;;;0.70;0.70;;;;;;;25.17;16.78;97870.56;1685205;85;21636;-73
2021/05/04 11:01:06;;;;;;;0.60;0.50;;;;;;;25.41;16.05;97868.56;1685134;84;21137;-73
2021/05/04 11:03:42;;;;;;;2.02;0.60;;;;;;;26.46;18.37;97871.32;1685427;85;21173;-73
2021/05/04 11:06:29;;;;;;;0.82;0.47;;;;;;;27.14;17.84;97860.72;1685292;84;21144;-73
2021/05/04 11:09:08;;;;;;;0.57;0.57;;;;;;;27.22;14.39;97864.27;1685154;85;21197;-74
2021/05/04 11:11:45;;;;;;;0.90;0.65;;;;;;;28.00;16.91;97854.30;1701788;80;21166;-66
2021/05/04 11:14:41;;;;;;;1.40;0.60;;;;;;;26.36;14.41;97851.23;1698868;83;21343;-67
2021/05/04 11:17:12;;;;;;;1.87;1.10;;;;;;;26.72;14.13;97853.30;1711018;83;21214;-67
2021/05/04 11:19:42;;;;;;;0.88;0.65;;;;;;;25.59;14.96;97846.31;1712203;82;21140;-67
2021/05/04 11:22:22;;;;;;;1.05;0.80;;;;;;;25.18;14.79;97840.78;1712476;84;21601;-67
2021/05/04 11:24:52;;;;;;;1.12;0.80;;;;;;;25.47;16.32;97837.05;1699119;84;21196;-68
2021/05/04 11:27:24;;;;;;;1.70;0.80;;;;;;;26.34;15.65;97838.70;1712605;82;21132;-66
2021/05/04 11:29:59;;;;;;;32.28;20.27;;;;;;;25.56;15.13;97835.65;1737090;81;21162;-64
2021/05/04 11:32:30;;;;;;;;;;;;;;;26.64;14.55;97827.62;1739738;81;21210;-65
2021/05/04 11:35:03;;;;;;;2.55;1.40;;;;;;;27.15;14.41;97830.34;1729199;82;20274;-65
2021/05/04 11:37:36;;;;;;;2.00;1.60;;;;;;;26.30;13.76;97826.38;1680355;84;21160;-64
2021/05/04 11:40:16;;;;;;;0.98;0.70;;;;;;;24.89;15.28;97817.41;1708414;82;21162;-66
2021/05/04 11:42:56;;;;;;;1.45;0.80;;;;;;;25.03;14.83;97824.85;1694808;83;21165;-66
2021/05/04 11:45:34;;;;;;;0.93;0.82;;;;;;;25.11;15.06;97816.20;1694776;85;21575;-65
2021/05/04 11:48:26;;;;;;;1.30;0.82;;;;;;;24.53;16.17;97806.59;1694883;85;21165;-67
2021/05/04 11:50:54;;;;;;;0.90;0.78;;;;;;;23.71;15.94;97816.44;1737570;81;21155;-64
2021/05/04 11:53:23;;;;;;;1.37;0.90;;;;;;;25.08;15.41;97809.53;1753198;82;21584;-72
2021/05/04 11:55:55;;;;;;;0.50;0.50;;;;;;;26.09;14.92;97803.71;1753251;82;21167;-72
2021/05/04 11:58:28;;;;;;;0.60;0.57;;;;;;;26.73;14.90;97804.27;1753232;82;21612;-72
2021/05/04 12:01:06;;;;;;;0.82;0.65;;;;;;;27.51;13.87;97798.17;1753622;82;21195;-71
2021/05/04 12:03:34;;;;;;;0.70;0.70;;;;;;;27.71;13.31;97795.11;1753073;82;21191;-72